sensor_id;sensor_type;location;lat;lon;timestamp;pressure;altitude;pressure_sealevel;temperature;humidity
52935;BME280;38802;50.198;19.796;2023-04-07T00:00:40;95987.45;;;-0.69;91.10
52935;BME280;38802;50.198;19.796;2023-04-07T00:03:17;95983.00;;;-0.73;91.21
52935;BME280;38802;50.198;19.796;2023-04-07T00:05:44;95985.13;;;-0.71;91.46
52935;BME280;38802;50.198;19.796;2023-04-07T00:08:11;95989.38;;;-0.71;91.53
52935;BME280;38802;50.198;19.796;2023-04-07T00:10:38;95989.25;;;-0.71;91.08
52935;BME280;38802;50.198;19.796;2023-04-07T00:13:07;95983.81;;;-0.72;91.22
52935;BME280;38802;50.198;19.796;2023-04-07T00:15:34;95977.59;;;-0.70;90.84
52935;BME280;38802;50.198;19.796;2023-04-07T00:18:01;95977.75;;;-0.70;91.43
52935;BME280;38802;50.198;19.796;2023-04-07T00:20:27;95975.78;;;-0.72;91.24
52935;BME280;38802;50.198;19.796;2023-04-07T00:22:54;95982.57;;;-0.71;91.11
52935;BME280;38802;50.198;19.796;2023-04-07T00:25:21;95977.95;;;-0.71;90.79
52935;BME280;38802;50.198;19.796;2023-04-07T00:27:47;95976.74;;;-0.70;91.27
52935;BME280;38802;50.198;19.796;2023-04-07T00:30:15;95976.42;;;-0.71;91.14
52935;BME280;38802;50.198;19.796;2023-04-07T00:32:41;95978.16;;;-0.72;91.57
52935;BME280;38802;50.198;19.796;2023-04-07T00:35:11;95975.25;;;-0.71;91.26
52935;BME280;38802;50.198;19.796;2023-04-07T00:37:38;95971.88;;;-0.72;91.69
52935;BME280;38802;50.198;19.796;2023-04-07T00:40:05;95970.30;;;-0.71;91.59
52935;BME280;38802;50.198;19.796;2023-04-07T00:42:32;95970.46;;;-0.71;91.15
52935;BME280;38802;50.198;19.796;2023-04-07T00:44:59;95965.45;;;-0.70;91.43
52935;BME280;38802;50.198;19.796;2023-04-07T00:47:26;95964.20;;;-0.68;91.42
52935;BME280;38802;50.198;19.796;2023-04-07T00:49:53;95963.16;;;-0.68;91.35
52935;BME280;38802;50.198;19.796;2023-04-07T00:52:19;95959.93;;;-0.68;91.35
52935;BME280;38802;50.198;19.796;2023-04-07T00:54:53;95961.58;;;-0.70;91.63
52935;BME280;38802;50.198;19.796;2023-04-07T00:57:21;95959.84;;;-0.70;91.50
52935;BME280;38802;50.198;19.796;2023-04-07T00:59:51;95961.93;;;-0.71;91.67
52935;BME280;38802;50.198;19.796;2023-04-07T01:02:28;95958.92;;;-0.68;91.81
52935;BME280;38802;50.198;19.796;2023-04-07T01:05:08;95957.21;;;-0.68;91.92
52935;BME280;38802;50.198;19.796;2023-04-07T01:07:54;95955.95;;;-0.70;91.76
52935;BME280;38802;50.198;19.796;2023-04-07T01:10:42;95951.66;;;-0.70;91.24
52935;BME280;38802;50.198;19.796;2023-04-07T01:13:22;95949.95;;;-0.70;91.26
52935;BME280;38802;50.198;19.796;2023-04-07T01:15:59;95951.80;;;-0.69;91.37
52935;BME280;38802;50.198;19.796;2023-04-07T01:18:35;95956.52;;;-0.68;91.98
52935;BME280;38802;50.198;19.796;2023-04-07T01:21:10;95953.31;;;-0.69;91.55
52935;BME280;38802;50.198;19.796;2023-04-07T01:23:48;95955.89;;;-0.69;91.59
52935;BME280;38802;50.198;19.796;2023-04-07T01:26:43;95959.84;;;-0.70;91.65
52935;BME280;38802;50.198;19.796;2023-04-07T01:31:39;95959.31;;;-0.66;91.59
52935;BME280;38802;50.198;19.796;2023-04-07T01:34:11;95952.20;;;-0.63;91.42
52935;BME280;38802;50.198;19.796;2023-04-07T01:36:38;95949.67;;;-0.64;91.49
52935;BME280;38802;50.198;19.796;2023-04-07T01:39:06;95947.11;;;-0.63;91.84
52935;BME280;38802;50.198;19.796;2023-04-07T01:41:33;95948.15;;;-0.63;92.39
52935;BME280;38802;50.198;19.796;2023-04-07T01:44:00;95947.35;;;-0.65;92.06
52935;BME280;38802;50.198;19.796;2023-04-07T01:46:28;95950.59;;;-0.65;92.05
52935;BME280;38802;50.198;19.796;2023-04-07T01:48:55;95949.33;;;-0.63;92.21
52935;BME280;38802;50.198;19.796;2023-04-07T01:51:23;95951.88;;;-0.63;91.99
52935;BME280;38802;50.198;19.796;2023-04-07T01:53:51;95947.14;;;-0.64;92.18
52935;BME280;38802;50.198;19.796;2023-04-07T01:56:18;95945.23;;;-0.64;92.35
52935;BME280;38802;50.198;19.796;2023-04-07T01:58:49;95944.10;;;-0.65;91.99
52935;BME280;38802;50.198;19.796;2023-04-07T02:01:18;95941.24;;;-0.62;92.23
52935;BME280;38802;50.198;19.796;2023-04-07T02:03:53;95942.84;;;-0.59;92.48
52935;BME280;38802;50.198;19.796;2023-04-07T02:06:26;95937.17;;;-0.62;92.45
52935;BME280;38802;50.198;19.796;2023-04-07T02:08:59;95934.13;;;-0.63;92.33
52935;BME280;38802;50.198;19.796;2023-04-07T02:11:30;95925.45;;;-0.64;92.16
52935;BME280;38802;50.198;19.796;2023-04-07T02:14:00;95920.96;;;-0.62;92.68
52935;BME280;38802;50.198;19.796;2023-04-07T02:16:30;95917.05;;;-0.66;92.28
52935;BME280;38802;50.198;19.796;2023-04-07T02:19:00;95921.56;;;-0.68;92.39
52935;BME280;38802;50.198;19.796;2023-04-07T02:21:29;95921.11;;;-0.70;92.45
52935;BME280;38802;50.198;19.796;2023-04-07T02:24:00;95920.79;;;-0.70;92.40
52935;BME280;38802;50.198;19.796;2023-04-07T02:26:26;95922.86;;;-0.71;92.09
52935;BME280;38802;50.198;19.796;2023-04-07T02:28:56;95926.36;;;-0.69;92.21
52935;BME280;38802;50.198;19.796;2023-04-07T02:31:22;95923.73;;;-0.67;92.53
52935;BME280;38802;50.198;19.796;2023-04-07T02:33:49;95927.44;;;-0.70;92.53
52935;BME280;38802;50.198;19.796;2023-04-07T02:36:15;95928.61;;;-0.69;92.74
52935;BME280;38802;50.198;19.796;2023-04-07T02:38:42;95926.11;;;-0.67;92.62
52935;BME280;38802;50.198;19.796;2023-04-07T02:41:09;95926.54;;;-0.69;92.64
52935;BME280;38802;50.198;19.796;2023-04-07T02:43:36;95924.00;;;-0.70;92.28
52935;BME280;38802;50.198;19.796;2023-04-07T02:46:02;95928.01;;;-0.68;92.17
52935;BME280;38802;50.198;19.796;2023-04-07T02:48:29;95927.96;;;-0.66;92.41
52935;BME280;38802;50.198;19.796;2023-04-07T02:50:56;95925.88;;;-0.66;91.86
52935;BME280;38802;50.198;19.796;2023-04-07T02:53:22;95922.75;;;-0.64;92.43
52935;BME280;38802;50.198;19.796;2023-04-07T02:55:49;95925.30;;;-0.64;92.55
52935;BME280;38802;50.198;19.796;2023-04-07T02:58:16;95922.10;;;-0.65;92.20
52935;BME280;38802;50.198;19.796;2023-04-07T03:00:43;95920.84;;;-0.63;92.51
52935;BME280;38802;50.198;19.796;2023-04-07T03:03:16;95920.54;;;-0.60;92.47
52935;BME280;38802;50.198;19.796;2023-04-07T03:05:52;95921.52;;;-0.60;92.90
52935;BME280;38802;50.198;19.796;2023-04-07T03:08:18;95919.60;;;-0.62;92.39
52935;BME280;38802;50.198;19.796;2023-04-07T03:10:45;95920.55;;;-0.61;92.54
52935;BME280;38802;50.198;19.796;2023-04-07T03:13:13;95920.07;;;-0.61;92.26
52935;BME280;38802;50.198;19.796;2023-04-07T03:15:44;95918.89;;;-0.58;92.77
52935;BME280;38802;50.198;19.796;2023-04-07T03:18:12;95919.53;;;-0.57;93.08
52935;BME280;38802;50.198;19.796;2023-04-07T03:20:39;95920.04;;;-0.60;92.98
52935;BME280;38802;50.198;19.796;2023-04-07T03:23:09;95921.53;;;-0.60;93.26
52935;BME280;38802;50.198;19.796;2023-04-07T03:25:35;95920.90;;;-0.61;93.22
52935;BME280;38802;50.198;19.796;2023-04-07T03:28:03;95918.05;;;-0.62;93.08
52935;BME280;38802;50.198;19.796;2023-04-07T03:30:31;95913.42;;;-0.61;93.06
52935;BME280;38802;50.198;19.796;2023-04-07T03:32:58;95912.73;;;-0.61;93.08
52935;BME280;38802;50.198;19.796;2023-04-07T03:35:25;95908.36;;;-0.63;92.94
52935;BME280;38802;50.198;19.796;2023-04-07T03:37:52;95903.96;;;-0.64;93.13
52935;BME280;38802;50.198;19.796;2023-04-07T03:40:19;95903.45;;;-0.64;92.77
52935;BME280;38802;50.198;19.796;2023-04-07T03:42:47;95902.23;;;-0.63;92.81
52935;BME280;38802;50.198;19.796;2023-04-07T03:45:15;95903.97;;;-0.60;93.03
52935;BME280;38802;50.198;19.796;2023-04-07T03:47:46;95907.34;;;-0.59;93.00
52935;BME280;38802;50.198;19.796;2023-04-07T03:50:13;95910.20;;;-0.58;93.33
52935;BME280;38802;50.198;19.796;2023-04-07T03:52:49;95910.37;;;-0.58;93.21
52935;BME280;38802;50.198;19.796;2023-04-07T03:55:23;95912.73;;;-0.58;92.89
52935;BME280;38802;50.198;19.796;2023-04-07T03:57:52;95919.45;;;-0.55;93.08
52935;BME280;38802;50.198;19.796;2023-04-07T04:00:18;95920.42;;;-0.54;92.98
52935;BME280;38802;50.198;19.796;2023-04-07T04:02:53;95926.30;;;-0.52;93.12
52935;BME280;38802;50.198;19.796;2023-04-07T04:05:20;95927.27;;;-0.51;92.69
52935;BME280;38802;50.198;19.796;2023-04-07T04:07:47;95932.12;;;-0.48;93.14
52935;BME280;38802;50.198;19.796;2023-04-07T04:10:13;95934.67;;;-0.48;92.91
52935;BME280;38802;50.198;19.796;2023-04-07T04:12:42;95933.04;;;-0.46;92.95
52935;BME280;38802;50.198;19.796;2023-04-07T04:15:10;95932.90;;;-0.47;93.05
52935;BME280;38802;50.198;19.796;2023-04-07T04:17:37;95927.77;;;-0.47;92.79
52935;BME280;38802;50.198;19.796;2023-04-07T04:20:04;95925.55;;;-0.47;92.82
52935;BME280;38802;50.198;19.796;2023-04-07T04:22:46;95921.64;;;-0.47;93.20
52935;BME280;38802;50.198;19.796;2023-04-07T04:25:15;95921.98;;;-0.47;93.10
52935;BME280;38802;50.198;19.796;2023-04-07T04:27:44;95921.89;;;-0.48;93.38
52935;BME280;38802;50.198;19.796;2023-04-07T04:30:16;95931.98;;;-0.49;93.24
52935;BME280;38802;50.198;19.796;2023-04-07T04:32:49;95943.63;;;-0.50;93.01
52935;BME280;38802;50.198;19.796;2023-04-07T04:35:18;95944.54;;;-0.48;93.29
52935;BME280;38802;50.198;19.796;2023-04-07T04:37:54;95949.15;;;-0.43;93.22
52935;BME280;38802;50.198;19.796;2023-04-07T04:40:20;95950.13;;;-0.42;93.25
52935;BME280;38802;50.198;19.796;2023-04-07T04:42:48;95958.25;;;-0.37;92.93
52935;BME280;38802;50.198;19.796;2023-04-07T04:45:16;95957.80;;;-0.34;93.06
52935;BME280;38802;50.198;19.796;2023-04-07T04:47:45;95957.27;;;-0.34;93.32
52935;BME280;38802;50.198;19.796;2023-04-07T04:50:12;95956.71;;;-0.33;93.07
52935;BME280;38802;50.198;19.796;2023-04-07T04:52:41;95956.10;;;-0.30;93.19
52935;BME280;38802;50.198;19.796;2023-04-07T04:55:17;95932.64;;;-0.29;93.42
52935;BME280;38802;50.198;19.796;2023-04-07T04:57:44;95904.42;;;-0.27;93.74
52935;BME280;38802;50.198;19.796;2023-04-07T05:00:13;95900.70;;;-0.28;93.77
52935;BME280;38802;50.198;19.796;2023-04-07T05:02:40;95913.55;;;-0.34;93.61
52935;BME280;38802;50.198;19.796;2023-04-07T05:05:09;95930.27;;;-0.33;93.46
52935;BME280;38802;50.198;19.796;2023-04-07T05:07:36;95941.14;;;-0.32;93.76
52935;BME280;38802;50.198;19.796;2023-04-07T05:10:06;95946.27;;;-0.28;93.34
52935;BME280;38802;50.198;19.796;2023-04-07T05:12:34;95945.79;;;-0.28;93.52
52935;BME280;38802;50.198;19.796;2023-04-07T05:15:01;95945.23;;;-0.28;93.38
52935;BME280;38802;50.198;19.796;2023-04-07T05:17:28;95938.55;;;-0.27;93.59
52935;BME280;38802;50.198;19.796;2023-04-07T05:19:56;95932.56;;;-0.27;93.17
52935;BME280;38802;50.198;19.796;2023-04-07T05:22:32;95934.51;;;-0.24;93.49
52935;BME280;38802;50.198;19.796;2023-04-07T05:25:03;95941.02;;;-0.25;93.61
52935;BME280;38802;50.198;19.796;2023-04-07T05:27:31;95945.21;;;-0.23;93.80
52935;BME280;38802;50.198;19.796;2023-04-07T05:30:01;95945.27;;;-0.25;93.66
52935;BME280;38802;50.198;19.796;2023-04-07T05:32:31;95949.60;;;-0.26;93.36
52935;BME280;38802;50.198;19.796;2023-04-07T05:35:03;95949.89;;;-0.25;93.43
52935;BME280;38802;50.198;19.796;2023-04-07T05:37:31;95953.34;;;-0.22;93.30
52935;BME280;38802;50.198;19.796;2023-04-07T05:40:00;95953.89;;;-0.19;93.38
52935;BME280;38802;50.198;19.796;2023-04-07T05:42:27;95954.84;;;-0.18;93.56
52935;BME280;38802;50.198;19.796;2023-04-07T05:44:54;95951.80;;;-0.14;93.23
52935;BME280;38802;50.198;19.796;2023-04-07T05:47:22;95949.74;;;-0.14;93.40
52935;BME280;38802;50.198;19.796;2023-04-07T05:49:49;95945.17;;;-0.15;93.48
52935;BME280;38802;50.198;19.796;2023-04-07T05:52:16;95944.98;;;-0.15;93.36
52935;BME280;38802;50.198;19.796;2023-04-07T05:54:50;95947.98;;;-0.13;93.45
52935;BME280;38802;50.198;19.796;2023-04-07T05:57:17;95948.80;;;-0.12;93.42
52935;BME280;38802;50.198;19.796;2023-04-07T05:59:44;95950.16;;;-0.12;93.47
52935;BME280;38802;50.198;19.796;2023-04-07T06:02:12;95948.79;;;-0.12;93.80
52935;BME280;38802;50.198;19.796;2023-04-07T06:04:39;95946.95;;;-0.13;93.38
52935;BME280;38802;50.198;19.796;2023-04-07T06:07:08;95948.11;;;-0.12;93.73
52935;BME280;38802;50.198;19.796;2023-04-07T06:09:34;95942.77;;;-0.11;93.37
52935;BME280;38802;50.198;19.796;2023-04-07T06:12:01;95941.25;;;-0.12;93.46
52935;BME280;38802;50.198;19.796;2023-04-07T06:14:31;95936.46;;;-0.11;93.73
52935;BME280;38802;50.198;19.796;2023-04-07T06:16:57;95931.98;;;-0.14;93.65
52935;BME280;38802;50.198;19.796;2023-04-07T06:19:24;95932.14;;;-0.14;93.59
52935;BME280;38802;50.198;19.796;2023-04-07T06:21:53;95931.94;;;-0.13;93.37
52935;BME280;38802;50.198;19.796;2023-04-07T06:24:19;95937.11;;;-0.14;93.61
52935;BME280;38802;50.198;19.796;2023-04-07T06:26:48;95937.14;;;-0.15;93.60
52935;BME280;38802;50.198;19.796;2023-04-07T06:29:14;95932.21;;;-0.16;93.62
52935;BME280;38802;50.198;19.796;2023-04-07T06:31:42;95929.30;;;-0.15;93.87
52935;BME280;38802;50.198;19.796;2023-04-07T06:34:08;95933.17;;;-0.14;93.89
52935;BME280;38802;50.198;19.796;2023-04-07T06:36:35;95940.55;;;-0.15;94.07
52935;BME280;38802;50.198;19.796;2023-04-07T06:39:03;95944.25;;;-0.17;94.09
52935;BME280;38802;50.198;19.796;2023-04-07T06:41:29;95950.41;;;-0.18;93.90
52935;BME280;38802;50.198;19.796;2023-04-07T06:43:57;95959.14;;;-0.18;93.68
52935;BME280;38802;50.198;19.796;2023-04-07T06:46:23;95964.20;;;-0.17;93.72
52935;BME280;38802;50.198;19.796;2023-04-07T06:48:52;95948.49;;;-0.13;93.70
52935;BME280;38802;50.198;19.796;2023-04-07T06:51:19;95927.52;;;-0.10;94.11
52935;BME280;38802;50.198;19.796;2023-04-07T06:53:45;95912.50;;;-0.07;93.78
52935;BME280;38802;50.198;19.796;2023-04-07T06:56:14;95912.10;;;-0.09;94.00
52935;BME280;38802;50.198;19.796;2023-04-07T06:58:41;95923.26;;;-0.06;93.77
52935;BME280;38802;50.198;19.796;2023-04-07T07:01:07;95924.60;;;-0.06;94.20
52935;BME280;38802;50.198;19.796;2023-04-07T07:03:34;95923.81;;;-0.04;93.86
52935;BME280;38802;50.198;19.796;2023-04-07T07:06:01;95926.98;;;-0.02;93.90
52935;BME280;38802;50.198;19.796;2023-04-07T07:08:28;95932.38;;;0.01;93.92
52935;BME280;38802;50.198;19.796;2023-04-07T07:10:56;95935.02;;;0.06;94.05
52935;BME280;38802;50.198;19.796;2023-04-07T07:13:24;95931.82;;;0.05;93.87
52935;BME280;38802;50.198;19.796;2023-04-07T07:15:51;95936.76;;;0.05;94.02
52935;BME280;38802;50.198;19.796;2023-04-07T07:18:19;95942.23;;;0.05;94.33
52935;BME280;38802;50.198;19.796;2023-04-07T07:20:45;95946.36;;;0.08;93.88
52935;BME280;38802;50.198;19.796;2023-04-07T07:23:12;95951.52;;;0.08;94.14
52935;BME280;38802;50.198;19.796;2023-04-07T07:25:41;95942.84;;;0.07;93.84
52935;BME280;38802;50.198;19.796;2023-04-07T07:28:08;95940.47;;;0.06;93.98
52935;BME280;38802;50.198;19.796;2023-04-07T07:30:35;95936.07;;;0.06;94.19
52935;BME280;38802;50.198;19.796;2023-04-07T07:33:04;95939.12;;;0.06;94.14
52935;BME280;38802;50.198;19.796;2023-04-07T07:35:31;95936.73;;;0.09;94.18
52935;BME280;38802;50.198;19.796;2023-04-07T07:37:58;95934.25;;;0.08;93.90
52935;BME280;38802;50.198;19.796;2023-04-07T07:40:25;95938.94;;;0.10;94.36
52935;BME280;38802;50.198;19.796;2023-04-07T07:42:52;95938.89;;;0.11;94.31
52935;BME280;38802;50.198;19.796;2023-04-07T07:45:18;95939.01;;;0.12;94.00
52935;BME280;38802;50.198;19.796;2023-04-07T07:47:45;95939.54;;;0.12;94.23
52935;BME280;38802;50.198;19.796;2023-04-07T07:50:12;95939.33;;;0.12;94.39
52935;BME280;38802;50.198;19.796;2023-04-07T07:52:39;95940.80;;;0.17;94.51
52935;BME280;38802;50.198;19.796;2023-04-07T07:55:07;95938.63;;;0.16;94.30
52935;BME280;38802;50.198;19.796;2023-04-07T07:57:34;95940.58;;;0.15;94.28
52935;BME280;38802;50.198;19.796;2023-04-07T08:00:02;95940.94;;;0.15;94.24
52935;BME280;38802;50.198;19.796;2023-04-07T08:02:39;95948.02;;;0.16;94.28
52935;BME280;38802;50.198;19.796;2023-04-07T08:05:06;95950.84;;;0.18;94.54
52935;BME280;38802;50.198;19.796;2023-04-07T08:07:32;95954.51;;;0.20;94.08
52935;BME280;38802;50.198;19.796;2023-04-07T08:09:59;95949.38;;;0.20;94.32
52935;BME280;38802;50.198;19.796;2023-04-07T08:12:26;95948.54;;;0.24;94.20
52935;BME280;38802;50.198;19.796;2023-04-07T08:14:52;95950.01;;;0.29;94.25
52935;BME280;38802;50.198;19.796;2023-04-07T08:17:19;95947.48;;;0.28;94.32
52935;BME280;38802;50.198;19.796;2023-04-07T08:19:46;95944.19;;;0.29;94.22
52935;BME280;38802;50.198;19.796;2023-04-07T08:22:12;95940.32;;;0.28;94.31
52935;BME280;38802;50.198;19.796;2023-04-07T08:24:40;95945.96;;;0.27;94.30
52935;BME280;38802;50.198;19.796;2023-04-07T08:27:07;95947.91;;;0.26;94.03
52935;BME280;38802;50.198;19.796;2023-04-07T08:29:33;95951.31;;;0.26;94.58
52935;BME280;38802;50.198;19.796;2023-04-07T08:32:01;95941.63;;;0.29;94.42
52935;BME280;38802;50.198;19.796;2023-04-07T08:34:29;95944.98;;;0.30;94.50
52935;BME280;38802;50.198;19.796;2023-04-07T08:36:55;95947.86;;;0.35;94.28
52935;BME280;38802;50.198;19.796;2023-04-07T08:39:22;95949.44;;;0.30;94.30
52935;BME280;38802;50.198;19.796;2023-04-07T08:41:51;95951.89;;;0.33;94.68
52935;BME280;38802;50.198;19.796;2023-04-07T08:44:20;95957.47;;;0.34;94.39
52935;BME280;38802;50.198;19.796;2023-04-07T08:46:50;95966.55;;;0.33;94.21
52935;BME280;38802;50.198;19.796;2023-04-07T08:49:17;95968.20;;;0.30;94.56
52935;BME280;38802;50.198;19.796;2023-04-07T08:51:45;95975.99;;;0.32;94.59
52935;BME280;38802;50.198;19.796;2023-04-07T08:54:16;95985.58;;;0.31;94.46
52935;BME280;38802;50.198;19.796;2023-04-07T08:56:47;95987.45;;;0.31;94.50
52935;BME280;38802;50.198;19.796;2023-04-07T08:59:15;95982.70;;;0.35;94.49
52935;BME280;38802;50.198;19.796;2023-04-07T09:01:44;95983.64;;;0.33;94.43
52935;BME280;38802;50.198;19.796;2023-04-07T09:04:12;95977.70;;;0.36;94.44
52935;BME280;38802;50.198;19.796;2023-04-07T09:06:39;95974.08;;;0.40;94.40
52935;BME280;38802;50.198;19.796;2023-04-07T09:09:06;95970.98;;;0.41;94.71
52935;BME280;38802;50.198;19.796;2023-04-07T09:11:38;95965.41;;;0.39;94.43
52935;BME280;38802;50.198;19.796;2023-04-07T09:14:06;95962.40;;;0.38;94.20
52935;BME280;38802;50.198;19.796;2023-04-07T09:16:33;95958.34;;;0.41;94.30
52935;BME280;38802;50.198;19.796;2023-04-07T09:19:00;95955.77;;;0.41;94.58
52935;BME280;38802;50.198;19.796;2023-04-07T09:21:46;95955.83;;;0.43;94.34
52935;BME280;38802;50.198;19.796;2023-04-07T09:24:23;95950.89;;;0.47;94.53
52935;BME280;38802;50.198;19.796;2023-04-07T09:27:07;95949.42;;;0.49;94.64
52935;BME280;38802;50.198;19.796;2023-04-07T09:29:34;95947.04;;;0.49;94.25
52935;BME280;38802;50.198;19.796;2023-04-07T09:32:01;95946.30;;;0.50;94.64
52935;BME280;38802;50.198;19.796;2023-04-07T09:34:33;95944.63;;;0.53;94.27
52935;BME280;38802;50.198;19.796;2023-04-07T09:37:00;95935.91;;;0.57;94.37
52935;BME280;38802;50.198;19.796;2023-04-07T09:39:27;95933.77;;;0.58;94.24
52935;BME280;38802;50.198;19.796;2023-04-07T09:41:54;95931.58;;;0.57;94.45
52935;BME280;38802;50.198;19.796;2023-04-07T09:44:21;95932.87;;;0.55;94.50
52935;BME280;38802;50.198;19.796;2023-04-07T09:46:57;95938.71;;;0.55;94.30
52935;BME280;38802;50.198;19.796;2023-04-07T09:49:24;95934.80;;;0.54;94.67
52935;BME280;38802;50.198;19.796;2023-04-07T09:54:35;95937.89;;;0.54;94.29
52935;BME280;38802;50.198;19.796;2023-04-07T09:57:04;95938.23;;;0.51;94.52
52935;BME280;38802;50.198;19.796;2023-04-07T09:59:33;95934.98;;;0.54;94.34
52935;BME280;38802;50.198;19.796;2023-04-07T10:02:00;95941.49;;;0.54;94.34
52935;BME280;38802;50.198;19.796;2023-04-07T10:04:28;95946.90;;;0.55;94.47
52935;BME280;38802;50.198;19.796;2023-04-07T10:06:56;95953.48;;;0.54;94.42
52935;BME280;38802;50.198;19.796;2023-04-07T10:09:25;95940.80;;;0.54;94.44
52935;BME280;38802;50.198;19.796;2023-04-07T10:11:53;95938.55;;;0.55;94.33
52935;BME280;38802;50.198;19.796;2023-04-07T10:14:29;95933.26;;;0.54;94.30
52935;BME280;38802;50.198;19.796;2023-04-07T10:16:56;95925.23;;;0.58;94.22
52935;BME280;38802;50.198;19.796;2023-04-07T10:19:23;95923.34;;;0.61;94.30
52935;BME280;38802;50.198;19.796;2023-04-07T10:21:54;95924.86;;;0.62;94.36
52935;BME280;38802;50.198;19.796;2023-04-07T10:24:42;95928.40;;;0.63;94.36
52935;BME280;38802;50.198;19.796;2023-04-07T10:27:17;95930.11;;;0.63;94.44
52935;BME280;38802;50.198;19.796;2023-04-07T10:29:48;95929.09;;;0.67;94.44
52935;BME280;38802;50.198;19.796;2023-04-07T10:32:15;95931.31;;;0.70;94.29
52935;BME280;38802;50.198;19.796;2023-04-07T10:37:16;95926.63;;;0.78;94.50
52935;BME280;38802;50.198;19.796;2023-04-07T10:40:27;95931.96;;;0.81;94.29
52935;BME280;38802;50.198;19.796;2023-04-07T10:42:54;95936.38;;;0.82;94.41
52935;BME280;38802;50.198;19.796;2023-04-07T10:45:55;95937.36;;;0.82;94.27
52935;BME280;38802;50.198;19.796;2023-04-07T10:48:24;95942.12;;;0.83;94.29
52935;BME280;38802;50.198;19.796;2023-04-07T10:53:30;95936.17;;;0.86;94.31
52935;BME280;38802;50.198;19.796;2023-04-07T10:55:57;95937.02;;;0.93;94.33
52935;BME280;38802;50.198;19.796;2023-04-07T10:58:28;95938.23;;;0.97;94.19
52935;BME280;38802;50.198;19.796;2023-04-07T11:03:23;95933.16;;;1.03;94.33
52935;BME280;38802;50.198;19.796;2023-04-07T11:05:51;95934.71;;;1.02;94.28
52935;BME280;38802;50.198;19.796;2023-04-07T11:08:34;95940.20;;;1.02;94.27
52935;BME280;38802;50.198;19.796;2023-04-07T11:11:04;95945.57;;;1.01;94.22
52935;BME280;38802;50.198;19.796;2023-04-07T11:13:47;95943.59;;;0.99;94.28
52935;BME280;38802;50.198;19.796;2023-04-07T11:16:16;95943.36;;;0.93;94.27
52935;BME280;38802;50.198;19.796;2023-04-07T11:18:43;95946.34;;;0.95;94.15
52935;BME280;38802;50.198;19.796;2023-04-07T11:21:10;95945.85;;;0.95;93.98
52935;BME280;38802;50.198;19.796;2023-04-07T11:23:43;95944.27;;;0.92;94.13
52935;BME280;38802;50.198;19.796;2023-04-07T11:26:13;95945.60;;;0.89;94.35
52935;BME280;38802;50.198;19.796;2023-04-07T11:28:48;95950.14;;;0.91;94.30
52935;BME280;38802;50.198;19.796;2023-04-07T11:31:22;95943.15;;;0.91;94.33
52935;BME280;38802;50.198;19.796;2023-04-07T11:33:56;95938.77;;;0.89;94.14
52935;BME280;38802;50.198;19.796;2023-04-07T11:36:39;95940.27;;;0.90;94.24
52935;BME280;38802;50.198;19.796;2023-04-07T11:39:20;95945.02;;;0.90;94.13
52935;BME280;38802;50.198;19.796;2023-04-07T11:41:48;95945.27;;;0.92;94.25
52935;BME280;38802;50.198;19.796;2023-04-07T11:44:15;95948.78;;;0.94;94.36
52935;BME280;38802;50.198;19.796;2023-04-07T11:46:57;95950.91;;;0.92;94.28
52935;BME280;38802;50.198;19.796;2023-04-07T11:49:25;95955.52;;;0.97;94.31
52935;BME280;38802;50.198;19.796;2023-04-07T11:51:59;95955.55;;;0.96;94.16
52935;BME280;38802;50.198;19.796;2023-04-07T11:54:26;95953.76;;;0.94;94.18
52935;BME280;38802;50.198;19.796;2023-04-07T11:56:52;95954.38;;;0.95;94.35
52935;BME280;38802;50.198;19.796;2023-04-07T11:59:24;95954.92;;;0.95;94.29
52935;BME280;38802;50.198;19.796;2023-04-07T12:01:52;95953.83;;;0.93;94.54
52935;BME280;38802;50.198;19.796;2023-04-07T12:04:23;95952.11;;;0.93;94.35
52935;BME280;38802;50.198;19.796;2023-04-07T12:06:50;95945.85;;;0.95;94.44
52935;BME280;38802;50.198;19.796;2023-04-07T12:09:33;95942.86;;;0.97;94.58
52935;BME280;38802;50.198;19.796;2023-04-07T12:12:05;95948.70;;;0.96;94.50
52935;BME280;38802;50.198;19.796;2023-04-07T12:14:33;95943.36;;;0.97;94.47
52935;BME280;38802;50.198;19.796;2023-04-07T12:17:00;95942.76;;;0.95;94.61
52935;BME280;38802;50.198;19.796;2023-04-07T12:19:30;95948.17;;;0.97;94.58
52935;BME280;38802;50.198;19.796;2023-04-07T12:22:01;95949.92;;;0.99;94.54
52935;BME280;38802;50.198;19.796;2023-04-07T12:24:27;95949.59;;;0.99;94.66
52935;BME280;38802;50.198;19.796;2023-04-07T12:26:54;95950.16;;;1.01;94.71
52935;BME280;38802;50.198;19.796;2023-04-07T12:29:21;95952.83;;;1.03;94.68
52935;BME280;38802;50.198;19.796;2023-04-07T12:31:48;95952.74;;;1.01;94.69
52935;BME280;38802;50.198;19.796;2023-04-07T12:34:17;95954.40;;;1.02;94.65
52935;BME280;38802;50.198;19.796;2023-04-07T12:36:44;95956.27;;;1.02;94.72
52935;BME280;38802;50.198;19.796;2023-04-07T12:39:11;95956.16;;;1.05;94.75
52935;BME280;38802;50.198;19.796;2023-04-07T12:41:38;95959.02;;;1.05;94.88
52935;BME280;38802;50.198;19.796;2023-04-07T12:44:05;95961.38;;;1.06;94.80
52935;BME280;38802;50.198;19.796;2023-04-07T12:46:31;95962.01;;;1.07;94.66
52935;BME280;38802;50.198;19.796;2023-04-07T12:48:58;95957.03;;;1.07;94.78
52935;BME280;38802;50.198;19.796;2023-04-07T12:51:26;95958.99;;;1.09;94.96
52935;BME280;38802;50.198;19.796;2023-04-07T12:53:54;95963.05;;;1.17;95.13
52935;BME280;38802;50.198;19.796;2023-04-07T12:56:21;95965.48;;;1.23;95.02
52935;BME280;38802;50.198;19.796;2023-04-07T12:58:48;95966.85;;;1.19;94.86
52935;BME280;38802;50.198;19.796;2023-04-07T13:01:15;95969.42;;;1.20;95.08
52935;BME280;38802;50.198;19.796;2023-04-07T13:03:44;95970.51;;;1.22;95.01
52935;BME280;38802;50.198;19.796;2023-04-07T13:06:11;95968.36;;;1.20;94.96
52935;BME280;38802;50.198;19.796;2023-04-07T13:08:39;95970.41;;;1.23;94.94
52935;BME280;38802;50.198;19.796;2023-04-07T13:11:06;95973.66;;;1.35;95.43
52935;BME280;38802;50.198;19.796;2023-04-07T13:13:33;95969.98;;;1.39;95.17
52935;BME280;38802;50.198;19.796;2023-04-07T13:15:59;95971.66;;;1.44;94.84
52935;BME280;38802;50.198;19.796;2023-04-07T13:18:26;95973.05;;;1.46;94.84